Gibraltar, Michigan
Current Conditions -  °F | °C
As of 10:15 PM on Friday 21 Nov 2014 (Local Time) from KONZ Reporting Station
Clear Clear  
Wind Chill: -11°   Ceiling: Unl
Heat Index: -4°   Visibility: 10mi
Dew Point: -9°   Wind: 14mph
Humidity: 69%   Direction: 200°SSW
Pressure: 30.37"   Gusts: NA
Location:  42.0725°N, 83.2169°W
Report Text: KONZ 220315Z AUTO 20012KT 10SM CLR M04/M09 A3037 RMK AO2
Loading
Personal Weather Stations






























Interactive Weather Map New forecast layout! Learn more

10-Day Weather Forecast

Advertisements
Track Severe Weather on mobile